createdAt,value
2018-05-14T00:01:08.770Z,74.42
2018-05-14T00:03:36.880Z,74.77
2018-05-14T00:06:05.810Z,75.60
2018-05-14T00:08:33.909Z,75.49
2018-05-14T00:11:02.017Z,75.28
2018-05-14T00:13:30.135Z,75.61
2018-05-14T00:15:58.238Z,75.64
2018-05-14T00:18:26.369Z,75.98
2018-05-14T00:20:54.554Z,76.27
2018-05-14T00:23:22.657Z,76.91
2018-05-14T00:25:51.026Z,76.63
2018-05-14T00:28:19.150Z,77.09
2018-05-14T00:30:48.123Z,77.28
2018-05-14T00:33:16.245Z,76.88
2018-05-14T00:35:45.660Z,76.89
2018-05-14T00:38:13.748Z,76.88
2018-05-14T00:40:41.876Z,77.70
2018-05-14T00:43:10.273Z,78.03
2018-05-14T00:45:38.376Z,77.97
2018-05-14T00:48:06.509Z,78.23
2018-05-14T00:50:34.639Z,77.60
2018-05-14T00:53:02.733Z,77.25
2018-05-14T00:55:30.848Z,77.32
2018-05-14T00:57:58.973Z,77.28
2018-05-14T01:00:27.068Z,78.10
2018-05-14T01:02:55.197Z,78.08
2018-05-14T01:05:23.308Z,78.26
2018-05-14T01:07:51.408Z,78.23
2018-05-14T01:10:20.312Z,78.13
2018-05-14T01:12:48.441Z,78.29
2018-05-14T01:15:16.542Z,78.76
2018-05-14T01:17:44.662Z,79.06
2018-05-14T01:20:12.854Z,78.78
2018-05-14T01:22:40.953Z,78.39
2018-05-14T01:25:09.070Z,77.85
2018-05-14T01:27:37.201Z,78.06
2018-05-14T01:30:05.300Z,78.47
2018-05-14T01:32:33.418Z,78.34
2018-05-14T01:35:01.545Z,78.79
2018-05-14T01:37:29.650Z,79.13
2018-05-14T01:39:58.060Z,78.78
2018-05-14T01:42:26.218Z,78.60
2018-05-14T01:44:54.360Z,78.89
2018-05-14T01:47:22.460Z,78.80
2018-05-14T01:49:50.609Z,78.59
2018-05-14T01:52:18.718Z,78.92
2018-05-14T01:54:47.741Z,79.13
2018-05-14T01:57:16.725Z,78.70
2018-05-14T01:59:44.873Z,78.25
2018-05-14T02:02:13.032Z,78.03
2018-05-14T02:04:45.935Z,77.87
2018-05-14T02:07:14.961Z,78.03
2018-05-14T02:09:43.074Z,78.43
2018-05-14T02:12:11.188Z,78.61
2018-05-14T02:14:39.357Z,78.67
2018-05-14T02:17:07.471Z,78.82
2018-05-14T02:19:35.605Z,78.55
2018-05-14T02:22:03.760Z,78.18
2018-05-14T02:24:31.879Z,78.67
2018-05-14T02:27:02.013Z,78.58
2018-05-14T02:29:30.119Z,78.31
2018-05-14T02:31:58.208Z,78.21
2018-05-14T02:34:26.343Z,78.98
2018-05-14T02:36:54.499Z,78.76
2018-05-14T02:39:22.597Z,78.37
2018-05-14T02:41:50.717Z,79.08
2018-05-14T02:44:18.851Z,79.61
2018-05-14T02:46:46.958Z,79.27
2018-05-14T02:49:15.084Z,78.99
2018-05-14T02:51:43.210Z,78.91
2018-05-14T02:54:11.305Z,79.12
2018-05-14T02:56:39.434Z,79.23
2018-05-14T02:59:07.552Z,79.63
2018-05-14T03:01:35.739Z,79.24
2018-05-14T03:04:03.874Z,79.12
2018-05-14T03:06:32.020Z,79.45
2018-05-14T03:09:00.161Z,80.08
2018-05-14T03:11:28.254Z,80.80
2018-05-14T03:13:56.373Z,81.05
2018-05-14T03:16:24.497Z,81.74
2018-05-14T03:18:52.642Z,81.61
2018-05-14T03:21:20.811Z,81.63
2018-05-14T03:23:48.920Z,81.66
2018-05-14T03:26:17.026Z,82.10
2018-05-14T03:28:45.195Z,82.41
2018-05-14T03:31:13.374Z,82.48
2018-05-14T03:33:41.489Z,82.79
2018-05-14T03:36:09.595Z,83.29
2018-05-14T03:38:37.721Z,83.38
2018-05-14T03:41:05.830Z,83.96
2018-05-14T03:43:33.955Z,84.45
2018-05-14T03:46:02.101Z,84.67
2018-05-14T03:48:30.198Z,84.31
2018-05-14T03:50:58.308Z,83.90
2018-05-14T03:53:26.433Z,83.51
2018-05-14T03:55:54.545Z,83.62
2018-05-14T03:58:34.559Z,84.10
2018-05-14T04:01:15.521Z,84.34
2018-05-14T04:04:01.100Z,84.52
2018-05-14T04:06:30.059Z,85.12
2018-05-14T04:21:58.203Z,85.79
2018-05-14T04:24:27.220Z,85.59
2018-05-14T04:26:55.289Z,85.55
2018-05-14T04:29:23.417Z,85.21
2018-05-14T04:31:51.535Z,84.68
2018-05-14T04:34:19.697Z,84.74
2018-05-14T04:36:47.815Z,85.04
2018-05-14T04:39:15.917Z,85.72
2018-05-14T04:41:44.067Z,86.02
2018-05-14T04:44:12.163Z,85.90
2018-05-14T04:46:40.320Z,86.29
2018-05-14T04:49:08.409Z,86.19
2018-05-14T04:51:36.561Z,85.99
2018-05-14T04:54:05.470Z,86.03
2018-05-14T04:56:33.583Z,86.19
2018-05-14T04:59:01.680Z,86.13
2018-05-14T05:01:29.796Z,86.18
2018-05-14T05:03:57.926Z,86.39
2018-05-14T05:06:26.038Z,86.56
2018-05-14T05:08:54.365Z,86.81
2018-05-14T05:11:22.500Z,87.08
2018-05-14T05:13:50.618Z,87.15
2018-05-14T05:16:18.718Z,87.35
2018-05-14T05:18:52.328Z,87.37
2018-05-14T05:21:26.021Z,87.17
2018-05-14T05:23:54.239Z,87.02
2018-05-14T05:26:22.354Z,86.94
2018-05-14T05:28:50.501Z,86.92
2018-05-14T05:31:18.628Z,86.99
2018-05-14T05:33:46.777Z,87.07
2018-05-14T05:36:14.892Z,86.84
2018-05-14T05:38:43.032Z,86.49
2018-05-14T05:41:11.144Z,85.95
2018-05-14T05:43:39.270Z,85.98
2018-05-14T05:46:07.414Z,85.59
2018-05-14T05:48:35.524Z,85.65
2018-05-14T05:51:03.637Z,85.80
2018-05-14T05:53:31.766Z,85.54
2018-05-14T05:55:59.868Z,85.66
2018-05-14T05:58:27.978Z,85.84
2018-05-14T06:00:56.842Z,85.77
2018-05-14T06:03:24.940Z,85.51
2018-05-14T06:05:53.664Z,85.67
2018-05-14T06:08:21.781Z,85.57
2018-05-14T06:10:49.927Z,85.55
2018-05-14T06:13:18.164Z,85.64
2018-05-14T06:15:48.033Z,85.62
2018-05-14T06:18:16.136Z,85.52
2018-05-14T06:20:44.289Z,85.71
2018-05-14T06:23:12.380Z,85.84
2018-05-14T06:25:40.540Z,85.97
2018-05-14T06:28:08.639Z,86.01
2018-05-14T06:30:36.877Z,86.06
2018-05-14T06:33:04.874Z,86.37
2018-05-14T06:35:33.078Z,86.28
2018-05-14T06:38:01.156Z,86.33
2018-05-14T06:40:29.252Z,86.46
2018-05-14T06:42:57.354Z,86.58
2018-05-14T06:45:25.472Z,86.64
2018-05-14T06:47:53.590Z,86.58
2018-05-14T06:50:21.690Z,86.39
2018-05-14T06:52:49.804Z,86.42
2018-05-14T06:55:17.919Z,86.38
2018-05-14T06:57:46.046Z,86.05
2018-05-14T07:00:14.146Z,86.07
2018-05-14T07:02:42.288Z,85.84
2018-05-14T07:05:10.385Z,85.68
2018-05-14T07:07:38.502Z,85.64
2018-05-14T07:10:06.629Z,85.69
2018-05-14T07:12:35.939Z,85.75
2018-05-14T07:15:03.886Z,86.13
2018-05-14T07:17:32.040Z,86.17
2018-05-14T07:20:00.182Z,85.89
2018-05-14T07:22:28.308Z,85.32
2018-05-14T07:24:56.436Z,85.19
2018-05-14T07:27:24.538Z,84.96
2018-05-14T07:29:53.282Z,85.01
2018-05-14T07:32:21.410Z,85.24
2018-05-14T07:34:49.531Z,85.21
2018-05-14T07:37:18.290Z,85.09
2018-05-14T07:39:46.406Z,84.77
2018-05-14T07:42:14.501Z,84.45
2018-05-14T07:44:42.612Z,84.35
2018-05-14T07:47:10.728Z,84.22
2018-05-14T07:49:38.851Z,84.14
2018-05-14T07:52:07.212Z,84.26
2018-05-14T07:54:35.313Z,84.45
2018-05-14T07:57:03.462Z,84.34
2018-05-14T07:59:32.637Z,84.06
2018-05-14T08:02:01.004Z,83.78
2018-05-14T08:04:29.111Z,83.53
2018-05-14T08:06:57.241Z,84.05
2018-05-14T08:09:25.394Z,83.97
2018-05-14T08:11:53.500Z,83.55
2018-05-14T08:14:21.608Z,83.32
2018-05-14T08:16:49.734Z,83.29
2018-05-14T08:19:17.858Z,83.01
2018-05-14T08:21:45.959Z,82.92
2018-05-14T08:24:14.096Z,82.83
2018-05-14T08:26:42.274Z,82.20
2018-05-14T08:29:10.320Z,81.59
2018-05-14T08:31:42.295Z,80.95
2018-05-14T08:34:10.413Z,80.55
2018-05-14T08:36:38.796Z,80.50
2018-05-14T08:39:06.900Z,80.84
2018-05-14T08:41:35.058Z,81.04
2018-05-14T08:44:03.152Z,80.84
2018-05-14T08:46:31.274Z,80.92
2018-05-14T08:48:59.369Z,81.24
2018-05-14T08:51:27.469Z,81.00
2018-05-14T08:53:55.600Z,80.58
2018-05-14T08:56:23.709Z,80.40
2018-05-14T08:58:51.806Z,79.79
2018-05-14T09:01:20.715Z,79.10
2018-05-14T09:03:48.822Z,79.04
2018-05-14T09:06:16.928Z,78.73
2018-05-14T09:08:45.081Z,78.63
2018-05-14T09:11:13.172Z,78.41
2018-05-14T09:13:41.280Z,77.96
2018-05-14T09:16:09.385Z,77.44
2018-05-14T09:18:37.882Z,76.73
2018-05-14T09:21:06.050Z,76.20
2018-05-14T09:23:34.249Z,76.54
2018-05-14T09:26:02.360Z,76.44
2018-05-14T09:28:30.464Z,76.55
2018-05-14T09:30:58.589Z,76.42
2018-05-14T09:33:26.761Z,75.27
2018-05-14T09:35:54.910Z,74.98
2018-05-14T09:38:23.756Z,75.03
2018-05-14T09:40:52.791Z,74.66
2018-05-14T09:43:20.884Z,74.79
2018-05-14T09:45:49.000Z,74.57
2018-05-14T09:48:17.867Z,73.84
2018-05-14T09:50:45.920Z,73.50
2018-05-14T09:53:14.190Z,74.01
2018-05-14T09:55:42.300Z,73.55
2018-05-14T09:58:10.400Z,73.87
2018-05-14T10:00:38.552Z,73.54
2018-05-14T10:03:06.656Z,74.18
2018-05-14T10:05:34.778Z,73.45
2018-05-14T10:08:02.881Z,73.60
2018-05-14T10:10:31.888Z,72.58
2018-05-14T10:13:00.058Z,73.23
2018-05-14T10:15:28.162Z,73.89
2018-05-14T10:17:56.251Z,74.13
2018-05-14T10:20:24.380Z,74.12
2018-05-14T10:22:52.496Z,73.33
2018-05-14T10:25:20.627Z,73.20
2018-05-14T10:27:48.796Z,72.59
2018-05-14T10:30:16.917Z,72.44
2018-05-14T10:32:45.017Z,73.02
2018-05-14T10:35:13.143Z,73.21
2018-05-14T10:37:41.248Z,73.03
2018-05-14T10:40:09.597Z,72.81
2018-05-14T10:42:37.708Z,72.49
2018-05-14T10:45:05.869Z,72.66
2018-05-14T10:47:34.098Z,72.27
2018-05-14T10:50:02.233Z,71.83
2018-05-14T10:52:35.288Z,72.21
2018-05-14T10:55:03.421Z,71.67
2018-05-14T10:57:31.529Z,71.64
2018-05-14T10:59:59.629Z,71.53
2018-05-14T11:02:27.756Z,71.20
2018-05-14T11:04:55.861Z,71.02
2018-05-14T11:07:24.884Z,69.97
2018-05-14T11:09:53.014Z,70.04
2018-05-14T11:12:21.126Z,70.82
2018-05-14T11:14:49.225Z,70.46
2018-05-14T11:17:17.341Z,70.01
2018-05-14T11:19:45.745Z,69.70
2018-05-14T11:22:13.862Z,69.87
2018-05-14T11:24:41.982Z,69.58
2018-05-14T11:27:10.096Z,69.65
2018-05-14T11:29:38.684Z,69.12
2018-05-14T11:32:06.813Z,69.20
2018-05-14T11:34:34.937Z,68.60
2018-05-14T11:37:03.036Z,68.49
2018-05-14T11:39:31.135Z,68.10
2018-05-14T11:41:59.265Z,67.95
2018-05-14T11:44:28.068Z,68.06
2018-05-14T11:46:56.278Z,67.52
2018-05-14T11:49:24.360Z,67.79
2018-05-14T11:51:52.487Z,67.52
2018-05-14T11:54:20.589Z,67.31
2018-05-14T11:56:48.710Z,67.18
2018-05-14T11:59:16.844Z,66.72
2018-05-14T12:01:45.780Z,66.49
2018-05-14T12:04:13.909Z,66.66
2018-05-14T12:06:42.015Z,66.25
2018-05-14T12:09:10.135Z,66.53
2018-05-14T12:11:38.260Z,65.82
2018-05-14T12:14:06.356Z,65.68
2018-05-14T12:16:34.538Z,65.50
2018-05-14T12:19:02.648Z,66.14
2018-05-14T12:21:30.757Z,65.90
2018-05-14T12:23:58.866Z,65.64
2018-05-14T12:26:27.783Z,65.18
2018-05-14T12:28:55.890Z,65.07
2018-05-14T12:31:29.607Z,65.14
2018-05-14T12:33:57.718Z,64.85
2018-05-14T12:36:25.820Z,64.79
2018-05-14T12:38:54.848Z,64.04
2018-05-14T12:41:22.979Z,64.07
2018-05-14T12:43:51.117Z,64.14
2018-05-14T12:46:19.288Z,64.14
2018-05-14T12:48:47.420Z,64.09
2018-05-14T12:51:15.546Z,64.50
2018-05-14T12:53:43.685Z,64.07
2018-05-14T12:56:11.792Z,63.84
2018-05-14T12:58:40.168Z,63.27
2018-05-14T13:01:08.276Z,63.36
2018-05-14T13:03:36.381Z,63.01
2018-05-14T13:06:04.508Z,62.38
2018-05-14T13:08:32.616Z,61.92
2018-05-14T13:11:00.733Z,62.00
2018-05-14T13:13:29.485Z,62.15
2018-05-14T13:15:57.583Z,61.81
2018-05-14T13:18:25.697Z,62.50
2018-05-14T13:20:53.865Z,62.31
2018-05-14T13:23:21.960Z,62.24
2018-05-14T13:25:50.077Z,62.48
2018-05-14T13:28:18.224Z,61.59
2018-05-14T13:30:46.334Z,61.10
2018-05-14T13:33:14.473Z,60.07
2018-05-14T13:35:42.611Z,60.31
2018-05-14T13:38:10.716Z,60.74
2018-05-14T13:40:38.829Z,60.59
2018-05-14T13:43:06.949Z,60.72
2018-05-14T13:45:35.078Z,60.91
2018-05-14T13:48:03.281Z,60.58
2018-05-14T13:50:31.383Z,59.83
2018-05-14T13:52:59.487Z,59.48
2018-05-14T13:55:27.589Z,59.41
2018-05-14T13:57:55.736Z,58.76
2018-05-14T14:00:23.847Z,58.73
2018-05-14T14:02:51.957Z,58.62
2018-05-14T14:05:20.081Z,59.46
2018-05-14T14:07:53.905Z,58.90
2018-05-14T14:10:22.054Z,58.97
2018-05-14T14:12:50.181Z,58.43
2018-05-14T14:15:18.290Z,58.50
2018-05-14T14:17:46.438Z,58.70
2018-05-14T14:20:14.561Z,58.38
2018-05-14T14:22:42.677Z,58.70
2018-05-14T14:25:10.785Z,58.70
2018-05-14T14:27:38.909Z,58.97
2018-05-14T14:30:07.010Z,58.72
2018-05-14T14:32:35.115Z,58.39
2018-05-14T14:35:03.246Z,58.80
2018-05-14T14:37:31.357Z,58.27
2018-05-14T14:39:59.449Z,58.18
2018-05-14T14:42:27.574Z,57.93
2018-05-14T14:44:55.697Z,58.17
2018-05-14T14:47:23.805Z,57.95
2018-05-14T14:49:51.929Z,57.96
2018-05-14T14:52:20.367Z,57.81
2018-05-14T14:54:48.470Z,58.37
2018-05-14T14:57:16.578Z,58.36
2018-05-14T14:59:44.997Z,57.76
2018-05-14T15:02:13.113Z,58.00
2018-05-14T15:04:41.228Z,58.03
2018-05-14T15:07:09.366Z,58.05
2018-05-14T15:09:37.512Z,58.70
2018-05-14T15:12:05.631Z,58.79
2018-05-14T15:14:33.762Z,58.33
2018-05-14T15:17:01.934Z,58.32
2018-05-14T15:19:30.042Z,58.16
2018-05-14T15:21:59.114Z,58.37
2018-05-14T15:24:27.217Z,58.80
2018-05-14T15:26:55.325Z,58.73
2018-05-14T15:29:23.434Z,58.58
2018-05-14T15:31:51.665Z,58.59
2018-05-14T15:34:19.781Z,59.02
2018-05-14T15:36:47.886Z,58.97
2018-05-14T15:39:16.836Z,59.06
2018-05-14T15:41:44.945Z,59.19
2018-05-14T15:44:13.050Z,58.87
2018-05-14T15:46:41.225Z,58.43
2018-05-14T15:49:09.846Z,58.57
2018-05-14T15:51:37.969Z,58.85
2018-05-14T15:54:06.099Z,58.70
2018-05-14T15:56:34.217Z,58.87
2018-05-14T15:59:02.294Z,59.14
2018-05-14T16:01:30.415Z,59.01
2018-05-14T16:03:58.525Z,59.50
2018-05-14T16:06:26.738Z,59.78
2018-05-14T16:08:54.859Z,59.58
2018-05-14T16:11:22.963Z,59.51
2018-05-14T16:13:51.091Z,59.91
2018-05-14T16:16:19.217Z,59.85
2018-05-14T16:18:47.399Z,59.85
2018-05-14T16:21:15.507Z,60.19
2018-05-14T16:23:43.623Z,60.35
2018-05-14T16:26:11.725Z,60.51
2018-05-14T16:28:39.846Z,60.10
2018-05-14T16:31:07.981Z,60.03
2018-05-14T16:33:36.109Z,60.47
2018-05-14T16:36:04.229Z,60.52
2018-05-14T16:38:34.001Z,60.61
2018-05-14T16:41:02.149Z,60.31
2018-05-14T16:43:30.255Z,60.02
2018-05-14T16:45:58.381Z,59.76
2018-05-14T16:48:27.311Z,59.83
2018-05-14T16:50:55.461Z,59.88
2018-05-14T16:53:23.613Z,59.93
2018-05-14T16:55:51.737Z,60.57
2018-05-14T16:58:19.945Z,60.63
2018-05-14T17:00:48.062Z,60.65
2018-05-14T17:03:16.171Z,60.84
2018-05-14T17:05:44.285Z,60.92
2018-05-14T17:08:12.387Z,60.99
2018-05-14T17:10:40.592Z,60.95
2018-05-14T17:13:08.715Z,60.88
2018-05-14T17:15:36.846Z,61.03
2018-05-14T17:18:04.945Z,61.33
2018-05-14T17:20:33.062Z,61.84
2018-05-14T17:23:01.172Z,61.62
2018-05-14T17:25:29.296Z,61.58
2018-05-14T17:27:57.481Z,61.81
2018-05-14T17:30:25.641Z,62.21
2018-05-14T17:32:53.744Z,62.12
2018-05-14T17:35:21.855Z,62.43
2018-05-14T17:37:49.971Z,62.40
2018-05-14T17:40:18.094Z,62.39
2018-05-14T17:42:46.212Z,62.21
2018-05-14T17:45:14.337Z,62.73
2018-05-14T17:47:42.456Z,62.62
2018-05-14T17:50:10.596Z,62.83
2018-05-14T17:52:38.712Z,63.36
2018-05-14T17:55:06.828Z,63.45
2018-05-14T17:57:35.744Z,63.40
2018-05-14T18:00:04.632Z,63.42
2018-05-14T18:02:32.742Z,63.66
2018-05-14T18:05:00.862Z,63.77
2018-05-14T18:07:29.030Z,63.85
2018-05-14T18:09:57.185Z,64.10
2018-05-14T18:12:25.301Z,64.18
2018-05-14T18:14:53.432Z,64.21
2018-05-14T18:17:21.615Z,64.63
2018-05-14T18:19:55.222Z,64.62
2018-05-14T18:22:26.058Z,64.97
2018-05-14T18:25:00.044Z,65.35
2018-05-14T18:27:32.414Z,65.38
2018-05-14T18:30:06.972Z,65.50
2018-05-14T18:32:35.217Z,65.40
2018-05-14T18:35:09.306Z,65.36
2018-05-14T18:37:37.428Z,65.21
2018-05-14T18:40:05.588Z,65.28
2018-05-14T18:42:33.737Z,65.38
2018-05-14T18:45:01.863Z,65.37
2018-05-14T18:47:31.694Z,65.37
2018-05-14T18:50:00.200Z,65.75
2018-05-14T18:52:28.302Z,65.75
2018-05-14T18:54:56.415Z,65.93
2018-05-14T18:57:24.554Z,66.68
2018-05-14T18:59:52.717Z,66.97
2018-05-14T19:02:20.864Z,67.14
2018-05-14T19:04:48.986Z,66.97
2018-05-14T19:07:17.081Z,67.20
2018-05-14T19:09:45.255Z,67.43
2018-05-14T19:12:13.364Z,67.40
2018-05-14T19:14:41.478Z,67.24
2018-05-14T19:20:15.216Z,67.85
2018-05-14T19:22:48.890Z,68.15
2018-05-14T19:25:17.001Z,68.28
2018-05-14T19:27:50.654Z,68.48
2018-05-14T19:30:18.772Z,68.61
2018-05-14T19:32:46.889Z,68.62
2018-05-14T19:35:20.690Z,69.05
2018-05-14T19:37:48.798Z,69.28
2018-05-14T19:40:22.563Z,69.05
2018-05-14T19:42:50.678Z,69.08
2018-05-14T19:45:18.794Z,69.25
2018-05-14T19:47:46.920Z,69.51
2018-05-14T19:50:15.035Z,69.67
2018-05-14T19:52:43.374Z,69.95
2018-05-14T19:55:11.484Z,70.20
2018-05-14T19:57:39.610Z,70.21
2018-05-14T20:00:07.747Z,70.38
2018-05-14T20:02:35.878Z,69.95
2018-05-14T20:05:04.104Z,70.02
2018-05-14T20:07:32.217Z,70.13
2018-05-14T20:10:00.342Z,70.36
2018-05-14T20:12:28.451Z,70.26
2018-05-14T20:14:56.587Z,70.18
2018-05-14T20:17:24.730Z,70.43
2018-05-14T20:19:52.848Z,70.39
2018-05-14T20:22:21.012Z,70.23
2018-05-14T20:24:49.120Z,70.21
2018-05-14T20:27:17.700Z,70.44
2018-05-14T20:29:45.876Z,70.60
2018-05-14T20:32:14.011Z,71.07
2018-05-14T20:34:42.142Z,71.38
2018-05-14T20:37:10.398Z,71.44
2018-05-14T20:39:38.404Z,71.28
2018-05-14T20:42:06.523Z,71.42
2018-05-14T20:44:34.636Z,71.26
2018-05-14T20:47:02.762Z,71.24
2018-05-14T20:49:30.906Z,71.40
2018-05-14T20:51:59.025Z,71.61
2018-05-14T20:54:27.968Z,71.62
2018-05-14T20:56:56.086Z,71.19
2018-05-14T20:59:25.030Z,71.45
2018-05-14T21:01:53.142Z,71.62
2018-05-14T21:04:21.246Z,71.62
2018-05-14T21:06:49.362Z,71.72
2018-05-14T21:09:17.514Z,71.64
2018-05-14T21:11:45.690Z,71.45
2018-05-14T21:14:13.826Z,71.93
2018-05-14T21:16:42.030Z,71.70
2018-05-14T21:19:10.174Z,71.75
2018-05-14T21:21:39.046Z,71.70
2018-05-14T21:24:07.275Z,71.90
2018-05-14T21:26:35.457Z,71.73
2018-05-14T21:29:03.982Z,71.83
2018-05-14T21:31:32.165Z,71.65
2018-05-14T21:34:02.290Z,71.80
2018-05-14T21:36:30.780Z,71.89
2018-05-14T21:38:58.934Z,71.66
2018-05-14T21:54:22.123Z,72.24
2018-05-14T21:56:50.270Z,72.20
2018-05-14T21:59:18.712Z,71.95
2018-05-14T22:01:46.910Z,72.13
2018-05-14T22:04:15.148Z,72.14
2018-05-14T22:06:44.463Z,72.45
2018-05-14T22:09:13.172Z,72.46
2018-05-14T22:11:41.338Z,72.58
2018-05-14T22:14:09.441Z,72.45
2018-05-14T22:16:38.556Z,72.37
2018-05-14T22:19:06.952Z,72.17
2018-05-14T22:21:35.242Z,72.44
2018-05-14T22:24:03.370Z,72.15
2018-05-14T22:26:31.564Z,72.23
2018-05-14T22:29:00.670Z,72.01
2018-05-14T22:31:28.806Z,71.71
2018-05-14T22:33:57.266Z,71.68
2018-05-14T22:36:25.380Z,71.50
2018-05-14T22:38:53.530Z,71.47
2018-05-14T22:41:22.658Z,71.62
2018-05-14T22:43:52.223Z,71.32
2018-05-14T22:46:21.147Z,71.58
2018-05-14T22:48:50.998Z,71.60
2018-05-14T22:51:19.222Z,71.42
2018-05-14T22:53:47.429Z,71.52
2018-05-14T22:56:20.514Z,71.43
2018-05-14T22:58:48.672Z,71.43
2018-05-14T23:01:16.843Z,71.14
2018-05-14T23:03:45.032Z,71.19
2018-05-14T23:06:14.186Z,70.87
2018-05-14T23:08:44.112Z,70.89
2018-05-14T23:11:12.232Z,70.93
2018-05-14T23:13:40.802Z,70.96
2018-05-14T23:16:09.450Z,70.94
2018-05-14T23:18:37.802Z,70.78
2018-05-14T23:21:06.833Z,70.76
2018-05-14T23:23:36.728Z,70.86
2018-05-14T23:26:05.009Z,70.85
2018-05-14T23:28:33.251Z,70.60
2018-05-14T23:31:01.381Z,70.54
2018-05-14T23:33:29.491Z,70.38
2018-05-14T23:35:58.991Z,70.55
2018-05-14T23:38:27.123Z,70.52
2018-05-14T23:40:55.247Z,70.62
2018-05-14T23:43:24.081Z,70.60
2018-05-14T23:45:52.568Z,70.70
2018-05-14T23:48:21.259Z,71.00
2018-05-14T23:50:50.258Z,71.13
2018-05-14T23:53:18.370Z,71.11
2018-05-14T23:55:46.498Z,71.41
2018-05-14T23:58:14.604Z,71.31
